sensor_id;sensor_type;location;lat;lon;timestamp;P1;durP1;ratioP1;P2;durP2;ratioP2
46723;SDS011;32463;48.298;11.620;2023-02-28T00:00:34;5.55;;;3.20;;
46723;SDS011;32463;48.298;11.620;2023-02-28T00:03:02;6.47;;;3.10;;
46723;SDS011;32463;48.298;11.620;2023-02-28T00:05:29;4.85;;;3.17;;
46723;SDS011;32463;48.298;11.620;2023-02-28T00:07:55;5.32;;;3.05;;
46723;SDS011;32463;48.298;11.620;2023-02-28T00:10:24;7.63;;;3.40;;
46723;SDS011;32463;48.298;11.620;2023-02-28T00:12:53;5.07;;;3.47;;
46723;SDS011;32463;48.298;11.620;2023-02-28T00:15:22;7.22;;;3.10;;
46723;SDS011;32463;48.298;11.620;2023-02-28T00:17:49;6.30;;;3.33;;
46723;SDS011;32463;48.298;11.620;2023-02-28T00:20:16;6.28;;;3.50;;
46723;SDS011;32463;48.298;11.620;2023-02-28T00:22:50;8.95;;;3.70;;
46723;SDS011;32463;48.298;11.620;2023-02-28T00:25:18;6.22;;;3.35;;
46723;SDS011;32463;48.298;11.620;2023-02-28T00:27:47;7.03;;;3.10;;
46723;SDS011;32463;48.298;11.620;2023-02-28T00:30:15;5.82;;;3.10;;
46723;SDS011;32463;48.298;11.620;2023-02-28T00:32:44;7.05;;;3.80;;
46723;SDS011;32463;48.298;11.620;2023-02-28T00:35:11;5.93;;;3.67;;
46723;SDS011;32463;48.298;11.620;2023-02-28T00:37:38;5.78;;;3.50;;
46723;SDS011;32463;48.298;11.620;2023-02-28T00:40:06;6.18;;;3.63;;
46723;SDS011;32463;48.298;11.620;2023-02-28T00:42:34;11.27;;;3.50;;
46723;SDS011;32463;48.298;11.620;2023-02-28T00:45:01;6.18;;;3.35;;
46723;SDS011;32463;48.298;11.620;2023-02-28T00:47:29;6.70;;;3.47;;
46723;SDS011;32463;48.298;11.620;2023-02-28T00:49:56;6.35;;;3.50;;
46723;SDS011;32463;48.298;11.620;2023-02-28T00:52:23;5.82;;;3.33;;
46723;SDS011;32463;48.298;11.620;2023-02-28T00:54:49;6.65;;;3.15;;
46723;SDS011;32463;48.298;11.620;2023-02-28T00:57:16;8.57;;;3.55;;
46723;SDS011;32463;48.298;11.620;2023-02-28T00:59:42;5.90;;;3.10;;
46723;SDS011;32463;48.298;11.620;2023-02-28T01:02:08;7.72;;;3.50;;
46723;SDS011;32463;48.298;11.620;2023-02-28T01:04:35;9.90;;;3.50;;
46723;SDS011;32463;48.298;11.620;2023-02-28T01:07:01;8.30;;;3.75;;
46723;SDS011;32463;48.298;11.620;2023-02-28T01:09:28;6.53;;;3.78;;
46723;SDS011;32463;48.298;11.620;2023-02-28T01:11:54;8.23;;;3.60;;
46723;SDS011;32463;48.298;11.620;2023-02-28T01:14:21;5.38;;;3.42;;
46723;SDS011;32463;48.298;11.620;2023-02-28T01:16:47;7.25;;;3.40;;
46723;SDS011;32463;48.298;11.620;2023-02-28T01:19:14;6.07;;;3.70;;
46723;SDS011;32463;48.298;11.620;2023-02-28T01:21:40;6.57;;;3.45;;
46723;SDS011;32463;48.298;11.620;2023-02-28T01:24:07;8.30;;;3.40;;
46723;SDS011;32463;48.298;11.620;2023-02-28T01:26:33;6.45;;;3.75;;
46723;SDS011;32463;48.298;11.620;2023-02-28T01:29:00;6.40;;;3.28;;
46723;SDS011;32463;48.298;11.620;2023-02-28T01:31:26;5.88;;;3.25;;
46723;SDS011;32463;48.298;11.620;2023-02-28T01:33:53;6.35;;;3.58;;
46723;SDS011;32463;48.298;11.620;2023-02-28T01:36:20;7.85;;;3.58;;
46723;SDS011;32463;48.298;11.620;2023-02-28T01:38:49;6.88;;;3.50;;
46723;SDS011;32463;48.298;11.620;2023-02-28T01:41:20;6.55;;;3.63;;
46723;SDS011;32463;48.298;11.620;2023-02-28T01:43:59;6.20;;;3.22;;
46723;SDS011;32463;48.298;11.620;2023-02-28T01:46:33;7.47;;;3.72;;
46723;SDS011;32463;48.298;11.620;2023-02-28T01:49:34;9.55;;;3.70;;
46723;SDS011;32463;48.298;11.620;2023-02-28T01:51:54;5.43;;;3.42;;
46723;SDS011;32463;48.298;11.620;2023-02-28T01:54:26;6.38;;;3.60;;
46723;SDS011;32463;48.298;11.620;2023-02-28T01:57:07;7.13;;;3.80;;
46723;SDS011;32463;48.298;11.620;2023-02-28T01:59:39;7.53;;;3.47;;
46723;SDS011;32463;48.298;11.620;2023-02-28T02:02:15;10.45;;;3.90;;
46723;SDS011;32463;48.298;11.620;2023-02-28T02:04:46;7.88;;;4.20;;
46723;SDS011;32463;48.298;11.620;2023-02-28T02:07:22;7.80;;;3.92;;
46723;SDS011;32463;48.298;11.620;2023-02-28T02:09:56;7.95;;;3.53;;
46723;SDS011;32463;48.298;11.620;2023-02-28T02:12:29;6.03;;;3.65;;
46723;SDS011;32463;48.298;11.620;2023-02-28T02:17:43;10.10;;;3.88;;
46723;SDS011;32463;48.298;11.620;2023-02-28T02:39:50;8.57;;;4.40;;
46723;SDS011;32463;48.298;11.620;2023-02-28T02:42:27;7.72;;;4.28;;
46723;SDS011;32463;48.298;11.620;2023-02-28T02:45:02;9.32;;;4.10;;
46723;SDS011;32463;48.298;11.620;2023-02-28T02:47:36;7.95;;;4.07;;
46723;SDS011;32463;48.298;11.620;2023-02-28T02:50:05;10.18;;;4.35;;
46723;SDS011;32463;48.298;11.620;2023-02-28T02:52:39;8.75;;;4.40;;
46723;SDS011;32463;48.298;11.620;2023-02-28T02:55:15;8.23;;;4.22;;
46723;SDS011;32463;48.298;11.620;2023-02-28T03:00:16;8.13;;;4.43;;
46723;SDS011;32463;48.298;11.620;2023-02-28T03:02:46;10.02;;;4.70;;
46723;SDS011;32463;48.298;11.620;2023-02-28T03:05:17;8.75;;;4.85;;
46723;SDS011;32463;48.298;11.620;2023-02-28T03:07:47;11.02;;;4.75;;
46723;SDS011;32463;48.298;11.620;2023-02-28T03:10:31;9.15;;;4.50;;
46723;SDS011;32463;48.298;11.620;2023-02-28T03:24:26;8.20;;;4.68;;
46723;SDS011;32463;48.298;11.620;2023-02-28T03:27:05;9.30;;;4.73;;
46723;SDS011;32463;48.298;11.620;2023-02-28T03:29:39;9.52;;;5.30;;
46723;SDS011;32463;48.298;11.620;2023-02-28T03:32:16;10.20;;;5.13;;
46723;SDS011;32463;48.298;11.620;2023-02-28T03:35:09;8.38;;;4.47;;
46723;SDS011;32463;48.298;11.620;2023-02-28T03:37:46;8.73;;;4.72;;
46723;SDS011;32463;48.298;11.620;2023-02-28T03:40:17;7.43;;;4.38;;
46723;SDS011;32463;48.298;11.620;2023-02-28T03:42:48;10.80;;;5.07;;
46723;SDS011;32463;48.298;11.620;2023-02-28T03:45:19;8.65;;;4.68;;
46723;SDS011;32463;48.298;11.620;2023-02-28T03:47:55;9.10;;;4.80;;
46723;SDS011;32463;48.298;11.620;2023-02-28T03:50:42;9.57;;;5.32;;
46723;SDS011;32463;48.298;11.620;2023-02-28T03:53:13;12.95;;;5.75;;
46723;SDS011;32463;48.298;11.620;2023-02-28T03:55:46;11.43;;;4.97;;
46723;SDS011;32463;48.298;11.620;2023-02-28T04:01:20;9.88;;;5.47;;
46723;SDS011;32463;48.298;11.620;2023-02-28T04:04:01;10.15;;;5.60;;
46723;SDS011;32463;48.298;11.620;2023-02-28T04:06:29;10.93;;;5.80;;
46723;SDS011;32463;48.298;11.620;2023-02-28T04:08:58;10.95;;;5.50;;
46723;SDS011;32463;48.298;11.620;2023-02-28T04:13:57;8.85;;;4.88;;
46723;SDS011;32463;48.298;11.620;2023-02-28T04:16:23;10.65;;;5.35;;
46723;SDS011;32463;48.298;11.620;2023-02-28T04:18:50;9.55;;;5.32;;
46723;SDS011;32463;48.298;11.620;2023-02-28T04:21:17;8.55;;;5.32;;
46723;SDS011;32463;48.298;11.620;2023-02-28T04:23:46;11.82;;;6.07;;
46723;SDS011;32463;48.298;11.620;2023-02-28T04:26:12;13.13;;;5.80;;
46723;SDS011;32463;48.298;11.620;2023-02-28T04:28:39;10.20;;;5.80;;
46723;SDS011;32463;48.298;11.620;2023-02-28T04:31:05;11.60;;;6.30;;
46723;SDS011;32463;48.298;11.620;2023-02-28T04:33:32;9.40;;;5.22;;
46723;SDS011;32463;48.298;11.620;2023-02-28T04:36:03;11.65;;;5.93;;
46723;SDS011;32463;48.298;11.620;2023-02-28T04:38:32;11.93;;;5.85;;
46723;SDS011;32463;48.298;11.620;2023-02-28T04:41:00;11.60;;;5.60;;
46723;SDS011;32463;48.298;11.620;2023-02-28T04:43:27;13.68;;;5.93;;
46723;SDS011;32463;48.298;11.620;2023-02-28T04:45:55;9.85;;;5.75;;
46723;SDS011;32463;48.298;11.620;2023-02-28T04:48:23;11.43;;;5.93;;
46723;SDS011;32463;48.298;11.620;2023-02-28T04:50:50;12.07;;;5.80;;
46723;SDS011;32463;48.298;11.620;2023-02-28T04:53:18;12.75;;;6.28;;
46723;SDS011;32463;48.298;11.620;2023-02-28T04:55:45;12.07;;;6.03;;
46723;SDS011;32463;48.298;11.620;2023-02-28T04:58:12;11.90;;;6.38;;
46723;SDS011;32463;48.298;11.620;2023-02-28T05:00:39;11.77;;;6.60;;
46723;SDS011;32463;48.298;11.620;2023-02-28T05:03:06;10.60;;;6.18;;
46723;SDS011;32463;48.298;11.620;2023-02-28T05:05:32;12.45;;;6.28;;
46723;SDS011;32463;48.298;11.620;2023-02-28T05:07:59;12.27;;;6.47;;
46723;SDS011;32463;48.298;11.620;2023-02-28T05:10:25;13.43;;;6.70;;
46723;SDS011;32463;48.298;11.620;2023-02-28T05:12:52;11.60;;;6.32;;
46723;SDS011;32463;48.298;11.620;2023-02-28T05:15:18;14.18;;;6.40;;
46723;SDS011;32463;48.298;11.620;2023-02-28T05:17:44;11.15;;;6.38;;
46723;SDS011;32463;48.298;11.620;2023-02-28T05:20:11;15.32;;;7.07;;
46723;SDS011;32463;48.298;11.620;2023-02-28T05:22:39;11.23;;;6.30;;
46723;SDS011;32463;48.298;11.620;2023-02-28T05:25:08;12.32;;;7.63;;
46723;SDS011;32463;48.298;11.620;2023-02-28T05:27:39;11.52;;;7.10;;
46723;SDS011;32463;48.298;11.620;2023-02-28T05:30:06;12.85;;;6.63;;
46723;SDS011;32463;48.298;11.620;2023-02-28T05:32:35;13.88;;;7.05;;
46723;SDS011;32463;48.298;11.620;2023-02-28T05:35:02;11.88;;;6.47;;
46723;SDS011;32463;48.298;11.620;2023-02-28T05:37:32;13.50;;;6.50;;
46723;SDS011;32463;48.298;11.620;2023-02-28T05:39:59;12.43;;;6.65;;
46723;SDS011;32463;48.298;11.620;2023-02-28T05:42:25;12.02;;;6.70;;
46723;SDS011;32463;48.298;11.620;2023-02-28T05:44:52;10.90;;;6.72;;
46723;SDS011;32463;48.298;11.620;2023-02-28T05:47:18;15.48;;;7.78;;
46723;SDS011;32463;48.298;11.620;2023-02-28T05:49:45;11.60;;;6.53;;
46723;SDS011;32463;48.298;11.620;2023-02-28T05:52:11;13.13;;;6.82;;
46723;SDS011;32463;48.298;11.620;2023-02-28T05:54:38;12.25;;;6.93;;
46723;SDS011;32463;48.298;11.620;2023-02-28T05:57:05;16.02;;;7.07;;
46723;SDS011;32463;48.298;11.620;2023-02-28T05:59:31;13.02;;;6.38;;
46723;SDS011;32463;48.298;11.620;2023-02-28T06:01:58;13.40;;;7.47;;
46723;SDS011;32463;48.298;11.620;2023-02-28T06:04:24;12.95;;;7.38;;
46723;SDS011;32463;48.298;11.620;2023-02-28T06:06:51;12.52;;;7.53;;
46723;SDS011;32463;48.298;11.620;2023-02-28T06:09:17;15.95;;;7.72;;
46723;SDS011;32463;48.298;11.620;2023-02-28T06:11:45;14.30;;;7.63;;
46723;SDS011;32463;48.298;11.620;2023-02-28T06:14:14;17.17;;;7.93;;
46723;SDS011;32463;48.298;11.620;2023-02-28T06:16:42;14.50;;;7.63;;
46723;SDS011;32463;48.298;11.620;2023-02-28T06:19:09;14.10;;;7.10;;
46723;SDS011;32463;48.298;11.620;2023-02-28T06:21:36;15.77;;;7.68;;
46723;SDS011;32463;48.298;11.620;2023-02-28T06:24:03;13.35;;;7.55;;
46723;SDS011;32463;48.298;11.620;2023-02-28T06:26:30;15.18;;;7.85;;
46723;SDS011;32463;48.298;11.620;2023-02-28T06:28:56;15.98;;;7.40;;
46723;SDS011;32463;48.298;11.620;2023-02-28T06:31:23;16.65;;;8.88;;
46723;SDS011;32463;48.298;11.620;2023-02-28T06:33:50;12.27;;;6.78;;
46723;SDS011;32463;48.298;11.620;2023-02-28T06:36:18;14.90;;;7.70;;
46723;SDS011;32463;48.298;11.620;2023-02-28T06:38:44;14.98;;;7.75;;
46723;SDS011;32463;48.298;11.620;2023-02-28T06:41:22;14.07;;;7.75;;
46723;SDS011;32463;48.298;11.620;2023-02-28T06:43:51;13.68;;;7.72;;
46723;SDS011;32463;48.298;11.620;2023-02-28T06:46:18;12.75;;;7.20;;
46723;SDS011;32463;48.298;11.620;2023-02-28T06:48:45;13.15;;;7.82;;
46723;SDS011;32463;48.298;11.620;2023-02-28T06:51:16;15.88;;;7.50;;
46723;SDS011;32463;48.298;11.620;2023-02-28T06:53:47;14.77;;;7.70;;
46723;SDS011;32463;48.298;11.620;2023-02-28T06:56:14;14.50;;;7.68;;
46723;SDS011;32463;48.298;11.620;2023-02-28T06:58:41;14.52;;;7.25;;
46723;SDS011;32463;48.298;11.620;2023-02-28T07:01:08;15.82;;;8.23;;
46723;SDS011;32463;48.298;11.620;2023-02-28T07:03:35;19.30;;;8.52;;
46723;SDS011;32463;48.298;11.620;2023-02-28T07:06:02;16.08;;;8.73;;
46723;SDS011;32463;48.298;11.620;2023-02-28T07:08:29;13.68;;;8.15;;
46723;SDS011;32463;48.298;11.620;2023-02-28T07:10:56;16.67;;;8.40;;
46723;SDS011;32463;48.298;11.620;2023-02-28T07:13:23;12.73;;;7.75;;
46723;SDS011;32463;48.298;11.620;2023-02-28T07:15:53;13.25;;;7.88;;
46723;SDS011;32463;48.298;11.620;2023-02-28T07:18:21;16.08;;;8.20;;
46723;SDS011;32463;48.298;11.620;2023-02-28T07:20:47;15.10;;;8.20;;
46723;SDS011;32463;48.298;11.620;2023-02-28T07:23:14;15.00;;;8.05;;
46723;SDS011;32463;48.298;11.620;2023-02-28T07:25:40;14.93;;;7.82;;
46723;SDS011;32463;48.298;11.620;2023-02-28T07:28:07;15.20;;;7.82;;
46723;SDS011;32463;48.298;11.620;2023-02-28T07:30:33;16.85;;;8.27;;
46723;SDS011;32463;48.298;11.620;2023-02-28T07:33:00;17.15;;;8.05;;
46723;SDS011;32463;48.298;11.620;2023-02-28T07:35:26;14.00;;;7.78;;
46723;SDS011;32463;48.298;11.620;2023-02-28T07:37:53;13.85;;;7.53;;
46723;SDS011;32463;48.298;11.620;2023-02-28T07:40:19;14.77;;;8.70;;
46723;SDS011;32463;48.298;11.620;2023-02-28T07:42:46;15.75;;;8.32;;
46723;SDS011;32463;48.298;11.620;2023-02-28T07:45:12;15.05;;;8.05;;
46723;SDS011;32463;48.298;11.620;2023-02-28T07:47:39;16.38;;;8.20;;
46723;SDS011;32463;48.298;11.620;2023-02-28T07:50:07;15.30;;;7.75;;
46723;SDS011;32463;48.298;11.620;2023-02-28T07:52:36;12.60;;;7.43;;
46723;SDS011;32463;48.298;11.620;2023-02-28T07:55:04;14.88;;;7.93;;
46723;SDS011;32463;48.298;11.620;2023-02-28T07:57:31;13.82;;;7.95;;
46723;SDS011;32463;48.298;11.620;2023-02-28T07:59:58;15.85;;;8.77;;
46723;SDS011;32463;48.298;11.620;2023-02-28T08:02:24;14.70;;;8.57;;
46723;SDS011;32463;48.298;11.620;2023-02-28T08:04:51;16.25;;;8.10;;
46723;SDS011;32463;48.298;11.620;2023-02-28T08:07:18;23.77;;;8.07;;
46723;SDS011;32463;48.298;11.620;2023-02-28T08:09:44;14.45;;;8.13;;
46723;SDS011;32463;48.298;11.620;2023-02-28T08:12:11;14.25;;;8.27;;
46723;SDS011;32463;48.298;11.620;2023-02-28T08:14:38;16.55;;;8.27;;
46723;SDS011;32463;48.298;11.620;2023-02-28T08:17:04;18.63;;;8.73;;
46723;SDS011;32463;48.298;11.620;2023-02-28T08:19:31;15.20;;;7.85;;
46723;SDS011;32463;48.298;11.620;2023-02-28T08:21:58;15.35;;;8.18;;
46723;SDS011;32463;48.298;11.620;2023-02-28T08:24:24;13.70;;;7.78;;
46723;SDS011;32463;48.298;11.620;2023-02-28T08:26:51;15.05;;;8.68;;
46723;SDS011;32463;48.298;11.620;2023-02-28T08:29:17;16.25;;;8.43;;
46723;SDS011;32463;48.298;11.620;2023-02-28T08:31:43;15.27;;;7.93;;
46723;SDS011;32463;48.298;11.620;2023-02-28T08:34:11;17.20;;;8.80;;
46723;SDS011;32463;48.298;11.620;2023-02-28T08:36:39;17.35;;;8.98;;
46723;SDS011;32463;48.298;11.620;2023-02-28T08:39:07;16.23;;;8.70;;
46723;SDS011;32463;48.298;11.620;2023-02-28T08:41:34;19.27;;;9.38;;
46723;SDS011;32463;48.298;11.620;2023-02-28T08:44:01;14.80;;;8.80;;
46723;SDS011;32463;48.298;11.620;2023-02-28T08:46:28;14.88;;;8.70;;
46723;SDS011;32463;48.298;11.620;2023-02-28T08:48:55;15.18;;;8.40;;
46723;SDS011;32463;48.298;11.620;2023-02-28T08:51:25;17.80;;;9.05;;
46723;SDS011;32463;48.298;11.620;2023-02-28T08:53:52;18.02;;;9.32;;
46723;SDS011;32463;48.298;11.620;2023-02-28T08:56:20;15.23;;;8.05;;
46723;SDS011;32463;48.298;11.620;2023-02-28T08:58:47;16.52;;;9.18;;
46723;SDS011;32463;48.298;11.620;2023-02-28T09:03:42;17.35;;;8.73;;
46723;SDS011;32463;48.298;11.620;2023-02-28T09:06:12;17.83;;;9.30;;
46723;SDS011;32463;48.298;11.620;2023-02-28T09:08:39;15.45;;;8.73;;
46723;SDS011;32463;48.298;11.620;2023-02-28T09:11:06;16.58;;;9.43;;
46723;SDS011;32463;48.298;11.620;2023-02-28T09:13:33;20.80;;;9.50;;
46723;SDS011;32463;48.298;11.620;2023-02-28T09:16:00;16.27;;;9.50;;
46723;SDS011;32463;48.298;11.620;2023-02-28T09:18:28;16.23;;;9.27;;
46723;SDS011;32463;48.298;11.620;2023-02-28T09:20:55;14.23;;;8.82;;
46723;SDS011;32463;48.298;11.620;2023-02-28T09:23:22;14.50;;;8.25;;
46723;SDS011;32463;48.298;11.620;2023-02-28T09:25:50;15.05;;;8.82;;
46723;SDS011;32463;48.298;11.620;2023-02-28T09:28:18;15.63;;;8.75;;
46723;SDS011;32463;48.298;11.620;2023-02-28T09:30:47;14.88;;;8.63;;
46723;SDS011;32463;48.298;11.620;2023-02-28T09:33:15;17.67;;;8.93;;
46723;SDS011;32463;48.298;11.620;2023-02-28T09:35:45;14.68;;;8.63;;
46723;SDS011;32463;48.298;11.620;2023-02-28T09:38:12;16.77;;;9.07;;
46723;SDS011;32463;48.298;11.620;2023-02-28T09:40:53;16.42;;;9.20;;
46723;SDS011;32463;48.298;11.620;2023-02-28T09:43:25;19.15;;;9.55;;
46723;SDS011;32463;48.298;11.620;2023-02-28T09:45:56;19.83;;;9.32;;
46723;SDS011;32463;48.298;11.620;2023-02-28T09:48:28;18.63;;;8.90;;
46723;SDS011;32463;48.298;11.620;2023-02-28T09:53:52;16.15;;;8.77;;
46723;SDS011;32463;48.298;11.620;2023-02-28T09:56:54;17.23;;;9.35;;
46723;SDS011;32463;48.298;11.620;2023-02-28T10:05:03;16.08;;;9.38;;
46723;SDS011;32463;48.298;11.620;2023-02-28T10:10:32;16.90;;;9.13;;
46723;SDS011;32463;48.298;11.620;2023-02-28T10:13:12;16.83;;;9.23;;
46723;SDS011;32463;48.298;11.620;2023-02-28T10:15:42;15.77;;;8.90;;
46723;SDS011;32463;48.298;11.620;2023-02-28T10:18:13;15.80;;;8.50;;
46723;SDS011;32463;48.298;11.620;2023-02-28T10:20:43;13.50;;;8.63;;
46723;SDS011;32463;48.298;11.620;2023-02-28T10:23:17;13.27;;;8.95;;
46723;SDS011;32463;48.298;11.620;2023-02-28T10:26:01;14.60;;;8.85;;
46723;SDS011;32463;48.298;11.620;2023-02-28T10:28:37;14.82;;;8.90;;
46723;SDS011;32463;48.298;11.620;2023-02-28T10:31:04;13.80;;;8.20;;
46723;SDS011;32463;48.298;11.620;2023-02-28T10:33:32;14.63;;;9.18;;
46723;SDS011;32463;48.298;11.620;2023-02-28T10:36:00;16.27;;;9.15;;
46723;SDS011;32463;48.298;11.620;2023-02-28T10:38:37;18.42;;;9.73;;
46723;SDS011;32463;48.298;11.620;2023-02-28T10:41:07;16.27;;;9.30;;
46723;SDS011;32463;48.298;11.620;2023-02-28T10:43:40;15.50;;;8.80;;
46723;SDS011;32463;48.298;11.620;2023-02-28T10:51:08;16.60;;;8.95;;
46723;SDS011;32463;48.298;11.620;2023-02-28T10:53:38;17.33;;;9.18;;
46723;SDS011;32463;48.298;11.620;2023-02-28T10:56:27;16.30;;;9.15;;
46723;SDS011;32463;48.298;11.620;2023-02-28T10:58:56;15.05;;;8.50;;
46723;SDS011;32463;48.298;11.620;2023-02-28T11:03:58;13.40;;;8.07;;
46723;SDS011;32463;48.298;11.620;2023-02-28T11:06:25;15.88;;;8.90;;
46723;SDS011;32463;48.298;11.620;2023-02-28T11:08:57;16.98;;;8.95;;
46723;SDS011;32463;48.298;11.620;2023-02-28T11:11:26;15.93;;;9.15;;
46723;SDS011;32463;48.298;11.620;2023-02-28T11:13:57;14.00;;;8.40;;
46723;SDS011;32463;48.298;11.620;2023-02-28T11:16:36;13.07;;;8.20;;
46723;SDS011;32463;48.298;11.620;2023-02-28T11:19:04;13.90;;;7.90;;
46723;SDS011;32463;48.298;11.620;2023-02-28T11:21:45;14.05;;;8.75;;
46723;SDS011;32463;48.298;11.620;2023-02-28T11:26:53;15.15;;;8.40;;
46723;SDS011;32463;48.298;11.620;2023-02-28T11:29:21;14.13;;;8.48;;
46723;SDS011;32463;48.298;11.620;2023-02-28T11:32:32;15.57;;;8.93;;
46723;SDS011;32463;48.298;11.620;2023-02-28T11:34:46;12.00;;;7.85;;
46723;SDS011;32463;48.298;11.620;2023-02-28T11:37:25;13.27;;;8.32;;
46723;SDS011;32463;48.298;11.620;2023-02-28T11:39:54;12.52;;;8.18;;
46723;SDS011;32463;48.298;11.620;2023-02-28T11:45:24;10.85;;;7.78;;
46723;SDS011;32463;48.298;11.620;2023-02-28T11:48:12;19.98;;;9.07;;
46723;SDS011;32463;48.298;11.620;2023-02-28T11:59:10;12.82;;;7.63;;
46723;SDS011;32463;48.298;11.620;2023-02-28T12:01:51;14.30;;;8.20;;
46723;SDS011;32463;48.298;11.620;2023-02-28T12:09:33;11.98;;;8.52;;
46723;SDS011;32463;48.298;11.620;2023-02-28T12:14:50;14.40;;;8.52;;
46723;SDS011;32463;48.298;11.620;2023-02-28T12:17:55;13.25;;;8.23;;
46723;SDS011;32463;48.298;11.620;2023-02-28T12:26:22;11.82;;;7.85;;
46723;SDS011;32463;48.298;11.620;2023-02-28T12:28:56;14.48;;;7.97;;
46723;SDS011;32463;48.298;11.620;2023-02-28T12:31:29;14.52;;;7.68;;
46723;SDS011;32463;48.298;11.620;2023-02-28T12:34:05;12.75;;;8.35;;
46723;SDS011;32463;48.298;11.620;2023-02-28T12:36:35;11.45;;;7.90;;
46723;SDS011;32463;48.298;11.620;2023-02-28T12:39:08;13.50;;;8.57;;
46723;SDS011;32463;48.298;11.620;2023-02-28T12:41:42;15.18;;;8.00;;
46723;SDS011;32463;48.298;11.620;2023-02-28T12:44:19;14.70;;;8.38;;
46723;SDS011;32463;48.298;11.620;2023-02-28T12:46:54;12.30;;;9.00;;
46723;SDS011;32463;48.298;11.620;2023-02-28T12:51:57;11.23;;;8.13;;
46723;SDS011;32463;48.298;11.620;2023-02-28T12:54:29;13.73;;;8.88;;
46723;SDS011;32463;48.298;11.620;2023-02-28T12:57:09;14.32;;;8.82;;
46723;SDS011;32463;48.298;11.620;2023-02-28T12:59:42;16.20;;;8.85;;
46723;SDS011;32463;48.298;11.620;2023-02-28T13:07:45;14.10;;;8.82;;
46723;SDS011;32463;48.298;11.620;2023-02-28T13:10:42;16.15;;;8.73;;
46723;SDS011;32463;48.298;11.620;2023-02-28T13:13:14;13.30;;;8.65;;
46723;SDS011;32463;48.298;11.620;2023-02-28T13:18:34;12.57;;;8.00;;
46723;SDS011;32463;48.298;11.620;2023-02-28T13:21:02;12.73;;;8.73;;
46723;SDS011;32463;48.298;11.620;2023-02-28T13:23:38;12.25;;;8.15;;
46723;SDS011;32463;48.298;11.620;2023-02-28T13:26:12;12.10;;;8.30;;
46723;SDS011;32463;48.298;11.620;2023-02-28T13:31:18;12.63;;;8.57;;
46723;SDS011;32463;48.298;11.620;2023-02-28T13:36:23;13.80;;;8.60;;
46723;SDS011;32463;48.298;11.620;2023-02-28T13:39:03;12.15;;;8.63;;
46723;SDS011;32463;48.298;11.620;2023-02-28T13:42:11;11.38;;;7.95;;
46723;SDS011;32463;48.298;11.620;2023-02-28T13:47:32;11.55;;;8.18;;
46723;SDS011;32463;48.298;11.620;2023-02-28T14:08:35;12.50;;;8.43;;
46723;SDS011;32463;48.298;11.620;2023-02-28T14:11:06;15.55;;;9.40;;
46723;SDS011;32463;48.298;11.620;2023-02-28T14:13:49;11.32;;;8.80;;
46723;SDS011;32463;48.298;11.620;2023-02-28T14:16:17;12.00;;;7.18;;
46723;SDS011;32463;48.298;11.620;2023-02-28T14:18:51;12.60;;;8.68;;
46723;SDS011;32463;48.298;11.620;2023-02-28T14:21:28;12.82;;;8.85;;
46723;SDS011;32463;48.298;11.620;2023-02-28T14:33:00;15.13;;;8.80;;
46723;SDS011;32463;48.298;11.620;2023-02-28T14:35:49;12.73;;;8.38;;
46723;SDS011;32463;48.298;11.620;2023-02-28T14:38:21;16.13;;;8.70;;
46723;SDS011;32463;48.298;11.620;2023-02-28T14:43:25;15.60;;;8.27;;
46723;SDS011;32463;48.298;11.620;2023-02-28T14:45:55;14.98;;;9.38;;
46723;SDS011;32463;48.298;11.620;2023-02-28T14:48:25;15.48;;;8.48;;
46723;SDS011;32463;48.298;11.620;2023-02-28T14:50:56;11.93;;;8.10;;
46723;SDS011;32463;48.298;11.620;2023-02-28T14:53:28;14.00;;;8.82;;
46723;SDS011;32463;48.298;11.620;2023-02-28T14:55:56;15.93;;;9.20;;
46723;SDS011;32463;48.298;11.620;2023-02-28T14:58:27;14.27;;;9.40;;
46723;SDS011;32463;48.298;11.620;2023-02-28T15:00:56;13.48;;;7.93;;
46723;SDS011;32463;48.298;11.620;2023-02-28T15:03:34;15.38;;;8.70;;
46723;SDS011;32463;48.298;11.620;2023-02-28T15:06:03;14.45;;;9.25;;
46723;SDS011;32463;48.298;11.620;2023-02-28T15:08:42;14.02;;;9.07;;
46723;SDS011;32463;48.298;11.620;2023-02-28T15:11:13;14.20;;;8.52;;
46723;SDS011;32463;48.298;11.620;2023-02-28T15:13:47;20.52;;;9.80;;
46723;SDS011;32463;48.298;11.620;2023-02-28T15:16:20;13.05;;;8.23;;
46723;SDS011;32463;48.298;11.620;2023-02-28T15:18:52;15.05;;;8.85;;
46723;SDS011;32463;48.298;11.620;2023-02-28T15:21:27;14.00;;;8.93;;
46723;SDS011;32463;48.298;11.620;2023-02-28T15:26:42;14.35;;;8.30;;
46723;SDS011;32463;48.298;11.620;2023-02-28T15:29:13;14.75;;;8.63;;
46723;SDS011;32463;48.298;11.620;2023-02-28T15:31:57;14.88;;;8.85;;
46723;SDS011;32463;48.298;11.620;2023-02-28T15:34:41;14.18;;;8.65;;
46723;SDS011;32463;48.298;11.620;2023-02-28T15:39:56;14.32;;;8.88;;
46723;SDS011;32463;48.298;11.620;2023-02-28T15:42:27;13.55;;;8.32;;
46723;SDS011;32463;48.298;11.620;2023-02-28T15:44:57;14.48;;;8.60;;
46723;SDS011;32463;48.298;11.620;2023-02-28T15:47:26;14.50;;;8.82;;
46723;SDS011;32463;48.298;11.620;2023-02-28T15:50:00;17.90;;;9.38;;
46723;SDS011;32463;48.298;11.620;2023-02-28T15:57:35;20.08;;;9.23;;
46723;SDS011;32463;48.298;11.620;2023-02-28T16:00:02;17.10;;;8.88;;
46723;SDS011;32463;48.298;11.620;2023-02-28T16:02:31;16.63;;;9.63;;
46723;SDS011;32463;48.298;11.620;2023-02-28T16:07:35;18.35;;;9.98;;
46723;SDS011;32463;48.298;11.620;2023-02-28T16:10:06;16.15;;;9.27;;
46723;SDS011;32463;48.298;11.620;2023-02-28T16:12:34;18.15;;;10.38;;
46723;SDS011;32463;48.298;11.620;2023-02-28T16:15:06;13.40;;;9.18;;
46723;SDS011;32463;48.298;11.620;2023-02-28T16:17:37;16.98;;;10.38;;
46723;SDS011;32463;48.298;11.620;2023-02-28T16:20:14;17.75;;;9.25;;
46723;SDS011;32463;48.298;11.620;2023-02-28T16:22:43;14.63;;;9.63;;
46723;SDS011;32463;48.298;11.620;2023-02-28T16:25:14;19.70;;;10.45;;
46723;SDS011;32463;48.298;11.620;2023-02-28T16:27:42;15.83;;;9.87;;
46723;SDS011;32463;48.298;11.620;2023-02-28T16:30:18;18.58;;;10.45;;
46723;SDS011;32463;48.298;11.620;2023-02-28T16:32:49;15.45;;;9.45;;
46723;SDS011;32463;48.298;11.620;2023-02-28T16:35:17;18.73;;;10.40;;
46723;SDS011;32463;48.298;11.620;2023-02-28T16:37:45;16.45;;;9.73;;
46723;SDS011;32463;48.298;11.620;2023-02-28T16:40:15;18.25;;;9.95;;
46723;SDS011;32463;48.298;11.620;2023-02-28T16:42:45;17.52;;;9.65;;
46723;SDS011;32463;48.298;11.620;2023-02-28T16:45:25;17.40;;;9.57;;
46723;SDS011;32463;48.298;11.620;2023-02-28T16:47:54;15.20;;;9.68;;
46723;SDS011;32463;48.298;11.620;2023-02-28T16:50:22;19.50;;;10.68;;
46723;SDS011;32463;48.298;11.620;2023-02-28T16:52:50;17.88;;;10.43;;
46723;SDS011;32463;48.298;11.620;2023-02-28T16:55:19;15.23;;;9.68;;
46723;SDS011;32463;48.298;11.620;2023-02-28T16:57:51;16.27;;;10.65;;
46723;SDS011;32463;48.298;11.620;2023-02-28T17:00:20;18.98;;;11.00;;
46723;SDS011;32463;48.298;11.620;2023-02-28T17:02:46;19.00;;;10.43;;
46723;SDS011;32463;48.298;11.620;2023-02-28T17:05:13;19.98;;;11.10;;
46723;SDS011;32463;48.298;11.620;2023-02-28T17:07:43;17.90;;;11.10;;
46723;SDS011;32463;48.298;11.620;2023-02-28T17:10:17;17.70;;;11.02;;
46723;SDS011;32463;48.298;11.620;2023-02-28T17:12:48;17.98;;;10.77;;
46723;SDS011;32463;48.298;11.620;2023-02-28T17:15:16;26.13;;;11.73;;